Time;durP1;ratioP1;P1;durP2;ratioP2;P2;SDS_P1;SDS_P2;PMS_P1;PMS_P2;Temp;Humidity;BMP_temperature;BMP_pressure;BME280_temperature;BME280_humidity;BME280_pressure;Samples;Min_cycle;Max_cycle;Signal;HPM_P1;HPM_P2
2022/01/21 00:01:08;;;;;;;;;;;;;;;;;;5088787;28;1568;-76
2022/01/21 00:03:33;;;;;;;;;;;;;;;;;;5123311;28;1187;-78
2022/01/21 00:05:59;;;;;;;;;;;;;;;;;;5105007;28;1340;-77
2022/01/21 00:08:27;;;;;;;;;;;;;;;;;;5104369;28;1889;-78
2022/01/21 00:10:52;;;;;;;;;;;;;;;;;;5093518;28;1448;-78
2022/01/21 00:13:33;;;;;;;;;;;;;;;;;;5102862;28;1201;-78
2022/01/21 00:15:58;;;;;;;;;;;;;;;;;;5110483;28;1024;-78
2022/01/21 00:18:26;;;;;;;;;;;;;;;;;;5071148;28;1170;-78
2022/01/21 00:31:56;;;;;;;;;;;;;;;;;;5104489;28;1011;-78
2022/01/21 00:34:26;;;;;;;;;;;;;;;;;;5126425;27;1373;-78
2022/01/21 00:36:52;;;;;;;;;;;;;;;;;;5092552;27;1337;-78
2022/01/21 00:39:21;;;;;;;;;;;;;;;;;;5112276;27;1143;-78
2022/01/21 00:42:03;;;;;;;;;;;;;;;;;;5109377;27;1092;-78
2022/01/21 00:44:28;;;;;;;;;;;;;;;;;;5088506;28;1370;-78
2022/01/21 00:46:54;;;;;;;;;;;;;;;;;;5108836;28;1905;-78
2022/01/21 00:49:19;;;;;;;;;;;;;;;;;;5090708;28;1227;-78
2022/01/21 00:51:44;;;;;;;;;;;;;;;;;;5113952;27;1069;-78
2022/01/21 00:54:09;;;;;;;;;;;;;;;;;;5107332;28;1203;-78
2022/01/21 00:56:35;;;;;;;;;;;;;;;;;;5121562;27;1302;-78
2022/01/21 00:59:00;;;;;;;;;;;;;;;;;;5102150;28;1163;-78
2022/01/21 01:01:31;;;;;;;;;;;;;;;;;;5109183;28;1159;-79
2022/01/21 01:03:57;;;;;;;;;;;;;;;;;;5082989;27;1374;-78
2022/01/21 01:06:22;;;;;;;;;;;;;;;;;;5107368;27;1231;-78
2022/01/21 01:08:50;;;;;;;;;;;;;;;;;;5104981;27;1918;-78
2022/01/21 01:11:21;;;;;;;;;;;;;;;;;;5110277;27;1309;-78
2022/01/21 01:21:59;;;;;;;;;;;;;;;;;;5106040;27;1056;-78
2022/01/21 01:29:52;;;;;;;;;;;;;;;;;;5129560;27;1039;-79
2022/01/21 01:32:17;;;;;;;;;;;;;;;;;;5128804;27;1150;-78
2022/01/21 01:34:42;;;;;;;;;;;;;;;;;;5094861;28;1317;-78
2022/01/21 01:37:15;;;;;;;;;;;;;;;;;;5103934;28;1193;-79
2022/01/21 01:39:47;;;;;;;;;;;;;;;;;;5109116;27;1009;-79
2022/01/21 01:50:24;;;;;;;;;;;;;;;;;;5101608;28;1104;-78
2022/01/21 01:52:50;;;;;;;;;;;;;;;;;;5085840;27;1081;-78
2022/01/21 01:55:16;;;;;;;;;;;;;;;;;;5128307;27;1203;-78
2022/01/21 01:57:41;;;;;;;;;;;;;;;;;;5106928;27;1196;-79
2022/01/21 02:00:07;;;;;;;;;;;;;;;;;;5091876;27;1242;-79
2022/01/21 02:02:32;;;;;;;;;;;;;;;;;;5106809;27;1270;-77
2022/01/21 02:04:57;;;;;;;;;;;;;;;;;;5108283;27;1219;-77
2022/01/21 02:07:23;;;;;;;;;;;;;;;;;;5104751;27;1951;-77
2022/01/21 02:09:48;;;;;;;;;;;;;;;;;;5090974;27;1133;-77
2022/01/21 02:12:13;;;;;;;;;;;;;;;;;;5108793;27;1211;-77
2022/01/21 02:14:47;;;;;;;;;;;;;;;;;;5091229;27;1184;-77
2022/01/21 02:22:41;;;;;;;;;;;;;;;;;;5117343;27;968;-77
2022/01/21 02:25:18;;;;;;;;;;;;;;;;;;5107389;27;1199;-78
2022/01/21 02:27:45;;;;;;;;;;;;;;;;;;5125686;27;1972;-78
2022/01/21 02:30:17;;;;;;;;;;;;;;;;;;5128570;27;1104;-77
2022/01/21 02:32:43;;;;;;;;;;;;;;;;;;5107707;27;1370;-78
2022/01/21 02:35:08;;;;;;;;;;;;;;;;;;5110483;27;1322;-77
2022/01/21 02:37:39;;;;;;;;;;;;;;;;;;5072870;28;1421;-77
2022/01/21 02:40:05;;;;;;;;;;;;;;;;;;5087291;28;1382;-77
2022/01/21 02:42:30;;;;;;;;;;;;;;;;;;5088590;28;1487;-78
2022/01/21 02:44:55;;;;;;;;;;;;;;;;;;5069803;28;1180;-77
2022/01/21 02:47:20;;;;;;;;;;;;;;;;;;5089418;28;1910;-78
2022/01/21 02:49:46;;;;;;;;;;;;;;;;;;5087550;28;1198;-77
2022/01/21 02:52:13;;;;;;;;;;;;;;;;;;5083878;27;1179;-77
2022/01/21 02:54:38;;;;;;;;;;;;;;;;;;5126106;27;1234;-77
2022/01/21 02:57:05;;;;;;;;;;;;;;;;;;5109138;27;1298;-77
2022/01/21 02:59:30;;;;;;;;;;;;;;;;;;5105705;28;1235;-78
2022/01/21 03:01:55;;;;;;;;;;;;;;;;;;5086309;28;1321;-78
2022/01/21 03:04:34;;;;;;;;;;;;;;;;;;5096950;27;1491;-78
2022/01/21 03:06:59;;;;;;;;;;;;;;;;;;5084307;28;1949;-78
2022/01/21 03:09:25;;;;;;;;;;;;;;;;;;5089304;28;1242;-78
2022/01/21 03:11:53;;;;;;;;;;;;;;;;;;5086533;28;1170;-77
2022/01/21 03:14:18;;;;;;;;;;;;;;;;;;5101773;27;1298;-78
2022/01/21 03:16:44;;;;;;;;;;;;;;;;;;5079131;28;1456;-78
2022/01/21 03:19:09;;;;;;;;;;;;;;;;;;5105919;28;1223;-77
2022/01/21 03:21:38;;;;;;;;;;;;;;;;;;5083123;28;1207;-78
2022/01/21 03:24:04;;;;;;;;;;;;;;;;;;5087052;28;1444;-77
2022/01/21 03:26:29;;;;;;;;;;;;;;;;;;5069934;27;1219;-77
2022/01/21 03:28:57;;;;;;;;;;;;;;;;;;5106646;27;1882;-78
2022/01/21 03:31:22;;;;;;;;;;;;;;;;;;5107791;27;1447;-78
2022/01/21 03:33:47;;;;;;;;;;;;;;;;;;5124641;27;1065;-78
2022/01/21 03:36:13;;;;;;;;;;;;;;;;;;5102030;27;1361;-77
2022/01/21 03:38:39;;;;;;;;;;;;;;;;;;5105524;27;1317;-79
2022/01/21 03:41:05;;;;;;;;;;;;;;;;;;5107484;27;1390;-77
2022/01/21 03:43:30;;;;;;;;;;;;;;;;;;5106578;28;1148;-77
2022/01/21 03:45:55;;;;;;;;;;;;;;;;;;5098610;28;1425;-77
2022/01/21 03:48:21;;;;;;;;;;;;;;;;;;5100203;28;1909;-78
2022/01/21 03:50:57;;;;;;;;;;;;;;;;;;5105209;27;1392;-77
2022/01/21 03:53:23;;;;;;;;;;;;;;;;;;5112767;27;1162;-78
2022/01/21 03:55:48;;;;;;;;;;;;;;;;;;5069080;28;1350;-78
2022/01/21 03:58:14;;;;;;;;;;;;;;;;;;5086494;28;1183;-78
2022/01/21 04:00:53;;;;;;;;;;;;;;;;;;5086456;28;1601;-78
2022/01/21 04:03:19;;;;;;;;;;;;;;;;;;5105276;28;1234;-78
2022/01/21 04:05:44;;;;;;;;;;;;;;;;;;5068274;28;1443;-78
2022/01/21 04:08:10;;;;;;;;;;;;;;;;;;5065835;28;1955;-77
2022/01/21 04:10:38;;;;;;;;;;;;;;;;;;5091080;28;1304;-77
2022/01/21 04:13:07;;;;;;;;;;;;;;;;;;5109748;27;1348;-77
2022/01/21 04:15:32;;;;;;;;;;;;;;;;;;5114704;27;1194;-78
2022/01/21 04:17:57;;;;;;;;;;;;;;;;;;5107790;28;1306;-78
2022/01/21 04:20:23;;;;;;;;;;;;;;;;;;5127750;27;1172;-78
2022/01/21 04:22:48;;;;;;;;;;;;;;;;;;5120652;27;1274;-78
2022/01/21 04:25:13;;;;;;;;;;;;;;;;;;5091350;28;1276;-77
2022/01/21 04:27:42;;;;;;;;;;;;;;;;;;5089012;27;1874;-78
2022/01/21 04:30:08;;;;;;;;;;;;;;;;;;5094326;27;1165;-77
2022/01/21 04:32:33;;;;;;;;;;;;;;;;;;5112221;27;1450;-77
2022/01/21 04:34:59;;;;;;;;;;;;;;;;;;5120566;27;1151;-77
2022/01/21 04:37:24;;;;;;;;;;;;;;;;;;5076435;28;1332;-77
2022/01/21 04:40:07;;;;;;;;;;;;;;;;;;5090937;28;1334;-78
2022/01/21 04:48:00;;;;;;;;;;;;;;;;;;5107097;28;1906;-78
2022/01/21 04:50:26;;;;;;;;;;;;;;;;;;5086671;28;1329;-78
2022/01/21 04:52:51;;;;;;;;;;;;;;;;;;5096592;28;1321;-78
2022/01/21 04:55:17;;;;;;;;;;;;;;;;;;5098107;28;1467;-77
2022/01/21 04:57:47;;;;;;;;;;;;;;;;;;5087982;28;1246;-78
2022/01/21 05:00:13;;;;;;;;;;;;;;;;;;5070839;28;1191;-77
2022/01/21 05:02:38;;;;;;;;;;;;;;;;;;5077790;28;1171;-78
2022/01/21 05:05:04;;;;;;;;;;;;;;;;;;5107263;28;1013;-77
2022/01/21 05:07:33;;;;;;;;;;;;;;;;;;5103012;28;1890;-78
2022/01/21 05:09:58;;;;;;;;;;;;;;;;;;5107350;28;1007;-78
2022/01/21 05:12:25;;;;;;;;;;;;;;;;;;5089147;28;1342;-77
2022/01/21 05:17:23;;;;;;;;;;;;;;;;;;5088516;28;1080;-78
2022/01/21 05:19:49;;;;;;;;;;;;;;;;;;5095053;28;1298;-77
2022/01/21 05:22:14;;;;;;;;;;;;;;;;;;5093196;28;1148;-78
2022/01/21 05:24:40;;;;;;;;;;;;;;;;;;5101379;28;1373;-78
2022/01/21 05:27:06;;;;;;;;;;;;;;;;;;5107114;28;1898;-78
2022/01/21 05:29:32;;;;;;;;;;;;;;;;;;5108561;28;1242;-77
2022/01/21 05:31:59;;;;;;;;;;;;;;;;;;5108736;28;1218;-77
2022/01/21 05:34:24;;;;;;;;;;;;;;;;;;5100481;28;1326;-78
2022/01/21 05:36:52;;;;;;;;;;;;;;;;;;5095635;27;1194;-78
2022/01/21 05:39:18;;;;;;;;;;;;;;;;;;5098503;28;1140;-78
2022/01/21 05:41:46;;;;;;;;;;;;;;;;;;5090212;28;1275;-78
2022/01/21 05:46:22;;;;;;;;;;;;;;;;;;5105340;27;1119;-78
2022/01/21 05:47:01;;;;;;;;;;;;;;;;;;5107022;27;1107;-78
2022/01/21 05:49:27;;;;;;;;;;;;;;;;;;5090622;27;1981;-78
2022/01/21 05:51:54;;;;;;;;;;;;;;;;;;5123275;27;1124;-78
2022/01/21 05:54:25;;;;;;;;;;;;;;;;;;5109997;27;1246;-78
2022/01/21 05:57:01;;;;;;;;;;;;;;;;;;5100989;27;1356;-78
2022/01/21 05:59:26;;;;;;;;;;;;;;;;;;5088401;28;1175;-78
2022/01/21 06:01:55;;;;;;;;;;;;;;;;;;5122108;27;1069;-77
2022/01/21 06:04:22;;;;;;;;;;;;;;;;;;5093194;27;1246;-77
2022/01/21 06:06:57;;;;;;;;;;;;;;;;;;5097871;27;1140;-78
2022/01/21 06:09:23;;;;;;;;;;;;;;;;;;5128517;27;1952;-78
2022/01/21 06:11:48;;;;;;;;;;;;;;;;;;5109121;27;1211;-78
2022/01/21 06:14:13;;;;;;;;;;;;;;;;;;5105390;27;1088;-78
2022/01/21 06:16:40;;;;;;;;;;;;;;;;;;5091944;28;1207;-78
2022/01/21 06:19:05;;;;;;;;;;;;;;;;;;5107894;27;1159;-79
2022/01/21 06:21:31;;;;;;;;;;;;;;;;;;5106239;27;1211;-78
2022/01/21 06:23:56;;;;;;;;;;;;;;;;;;5117369;27;1164;-77
2022/01/21 06:26:24;;;;;;;;;;;;;;;;;;5089440;28;1207;-79
2022/01/21 06:28:49;;;;;;;;;;;;;;;;;;5109734;27;1898;-78
2022/01/21 06:31:15;;;;;;;;;;;;;;;;;;5086430;28;1278;-77
2022/01/21 06:33:40;;;;;;;;;;;;;;;;;;5121953;27;1183;-77
2022/01/21 06:36:23;;;;;;;;;;;;;;;;;;5114719;27;1076;-78
2022/01/21 06:38:49;;;;;;;;;;;;;;;;;;5088562;28;1151;-77
2022/01/21 06:41:14;;;;;;;;;;;;;;;;;;5081337;28;1126;-77
2022/01/21 06:43:40;;;;;;;;;;;;;;;;;;5090080;28;1329;-77
2022/01/21 06:46:07;;;;;;;;;;;;;;;;;;5098075;27;1242;-76
2022/01/21 06:48:32;;;;;;;;;;;;;;;;;;5095451;28;1976;-78
2022/01/21 06:50:57;;;;;;;;;;;;;;;;;;5085967;28;1279;-77
2022/01/21 06:53:22;;;;;;;;;;;;;;;;;;5104229;27;1269;-78
2022/01/21 06:55:51;;;;;;;;;;;;;;;;;;5092254;27;1159;-78
2022/01/21 06:58:16;;;;;;;;;;;;;;;;;;5109139;27;1191;-77
2022/01/21 07:00:42;;;;;;;;;;;;;;;;;;5093278;27;1486;-77
2022/01/21 07:03:07;;;;;;;;;;;;;;;;;;5103261;27;1219;-77
2022/01/21 07:05:32;;;;;;;;;;;;;;;;;;5108879;27;1257;-77
2022/01/21 07:07:59;;;;;;;;;;;;;;;;;;5104262;27;1947;-78
2022/01/21 07:10:24;;;;;;;;;;;;;;;;;;5128384;27;1108;-78
2022/01/21 07:12:50;;;;;;;;;;;;;;;;;;5109461;27;1319;-77
2022/01/21 07:15:18;;;;;;;;;;;;;;;;;;5091883;27;1421;-77
2022/01/21 07:17:43;;;;;;;;;;;;;;;;;;5109462;27;1299;-78
2022/01/21 07:20:09;;;;;;;;;;;;;;;;;;5117994;27;1033;-77
2022/01/21 07:22:34;;;;;;;;;;;;;;;;;;5067858;28;1219;-77
2022/01/21 07:25:00;;;;;;;;;;;;;;;;;;5080900;27;1352;-76
2022/01/21 07:27:25;;;;;;;;;;;;;;;;;;5106360;28;2285;-76
2022/01/21 07:29:50;;;;;;;;;;;;;;;;;;5087721;28;1135;-76
2022/01/21 07:32:15;;;;;;;;;;;;;;;;;;5071350;28;1320;-77
2022/01/21 07:34:41;;;;;;;;;;;;;;;;;;5073017;28;1164;-77
2022/01/21 07:37:06;;;;;;;;;;;;;;;;;;5082332;28;1439;-76
2022/01/21 07:39:31;;;;;;;;;;;;;;;;;;5072147;28;1160;-76
2022/01/21 07:42:00;;;;;;;;;;;;;;;;;;5083799;27;1325;-76
2022/01/21 07:44:25;;;;;;;;;;;;;;;;;;5127263;27;1088;-75
2022/01/21 07:46:50;;;;;;;;;;;;;;;;;;5089665;27;1396;-75
2022/01/21 07:49:16;;;;;;;;;;;;;;;;;;5104900;27;1918;-76
2022/01/21 07:51:42;;;;;;;;;;;;;;;;;;5122422;27;1155;-77
2022/01/21 07:54:08;;;;;;;;;;;;;;;;;;5087548;28;1351;-76
2022/01/21 07:56:33;;;;;;;;;;;;;;;;;;5086974;28;1132;-77
2022/01/21 07:59:02;;;;;;;;;;;;;;;;;;5078053;28;1634;-77
2022/01/21 08:01:27;;;;;;;;;;;;;;;;;;5106717;27;1483;-76
2022/01/21 08:03:53;;;;;;;;;;;;;;;;;;5091625;28;1288;-77
2022/01/21 08:06:18;;;;;;;;;;;;;;;;;;5101659;28;1144;-76
2022/01/21 08:08:43;;;;;;;;;;;;;;;;;;5077667;28;1885;-77
2022/01/21 08:11:09;;;;;;;;;;;;;;;;;;5084447;28;1646;-77
2022/01/21 08:13:34;;;;;;;;;;;;;;;;;;5118035;28;1080;-75
2022/01/21 08:16:05;;;;;;;;;;;;;;;;;;5101986;28;1129;-76
2022/01/21 08:18:30;;;;;;;;;;;;;;;;;;5089896;28;1229;-76
2022/01/21 08:20:56;;;;;;;;;;;;;;;;;;5105341;28;1187;-76
2022/01/21 08:23:21;;;;;;;;;;;;;;;;;;5122060;28;1124;-76
2022/01/21 08:25:52;;;;;;;;;;;;;;;;;;5073186;28;1307;-77
2022/01/21 08:28:17;;;;;;;;;;;;;;;;;;5121007;28;1893;-76
2022/01/21 08:30:43;;;;;;;;;;;;;;;;;;5106735;28;1266;-77
2022/01/21 08:33:11;;;;;;;;;;;;;;;;;;5087621;28;1216;-76
2022/01/21 08:35:36;;;;;;;;;;;;;;;;;;5106628;28;1306;-76
2022/01/21 08:38:05;;;;;;;;;;;;;;;;;;5094767;28;1454;-76
2022/01/21 08:40:30;;;;;;;;;;;;;;;;;;5087385;28;1280;-76
2022/01/21 08:42:56;;;;;;;;;;;;;;;;;;5085329;28;1216;-75
2022/01/21 08:45:21;;;;;;;;;;;;;;;;;;5101344;28;1267;-77
2022/01/21 08:47:46;;;;;;;;;;;;;;;;;;5082157;28;1906;-76
2022/01/21 08:50:17;;;;;;;;;;;;;;;;;;5064122;28;1218;-77
2022/01/21 08:52:44;;;;;;;;;;;;;;;;;;5084010;28;1300;-77
2022/01/21 08:55:11;;;;;;;;;;;;;;;;;;5088556;27;1182;-77
2022/01/21 08:57:39;;;;;;;;;;;;;;;;;;5129697;27;1135;-77
2022/01/21 09:00:13;;;;;;;;;;;;;;;;;;5109221;27;1348;-77
2022/01/21 09:02:39;;;;;;;;;;;;;;;;;;5128658;27;1155;-77
2022/01/21 09:05:07;;;;;;;;;;;;;;;;;;5111366;27;1159;-77
2022/01/21 09:07:32;;;;;;;;;;;;;;;;;;5086958;28;1885;-75
2022/01/21 09:09:58;;;;;;;;;;;;;;;;;;5107762;28;1261;-73
2022/01/21 09:12:23;;;;;;;;;;;;;;;;;;5109232;27;1136;-75
2022/01/21 09:14:49;;;;;;;;;;;;;;;;;;5111207;27;1362;-75
2022/01/21 09:17:14;;;;;;;;;;;;;;;;;;5127171;27;1139;-76
2022/01/21 09:19:40;;;;;;;;;;;;;;;;;;5111987;27;1162;-75
2022/01/21 09:22:08;;;;;;;;;;;;;;;;;;5109113;27;1183;-75
2022/01/21 09:24:33;;;;;;;;;;;;;;;;;;5099860;27;1092;-75
2022/01/21 09:27:20;;;;;;;;;;;;;;;;;;5108901;27;1274;-76
2022/01/21 09:29:46;;;;;;;;;;;;;;;;;;5105259;28;1239;-75
2022/01/21 09:32:11;;;;;;;;;;;;;;;;;;5086366;28;1282;-76
2022/01/21 09:34:36;;;;;;;;;;;;;;;;;;5072574;28;1204;-76
2022/01/21 09:37:02;;;;;;;;;;;;;;;;;;5085584;28;1332;-76
2022/01/21 09:39:28;;;;;;;;;;;;;;;;;;5125215;27;1404;-76
2022/01/21 09:42:01;;;;;;;;;;;;;;;;;;5108753;27;1200;-76
2022/01/21 09:44:28;;;;;;;;;;;;;;;;;;5108514;27;1390;-76
2022/01/21 09:46:56;;;;;;;;;;;;;;;;;;5108094;27;1397;-76
2022/01/21 09:51:49;;;;;;;;;;;;;;;;;;5107544;27;1191;-76
2022/01/21 09:54:15;;;;;;;;;;;;;;;;;;5125119;27;1318;-76
2022/01/21 09:56:41;;;;;;;;;;;;;;;;;;5107270;27;1307;-75
2022/01/21 09:59:11;;;;;;;;;;;;;;;;;;5108844;27;1331;-76
2022/01/21 10:01:36;;;;;;;;;;;;;;;;;;5092668;27;1096;-75
2022/01/21 10:04:03;;;;;;;;;;;;;;;;;;5127889;27;1148;-75
2022/01/21 10:06:29;;;;;;;;;;;;;;;;;;5121493;27;1154;-76
2022/01/21 10:08:54;;;;;;;;;;;;;;;;;;5108677;27;1941;-76
2022/01/21 10:11:23;;;;;;;;;;;;;;;;;;5107232;27;1445;-76
2022/01/21 10:13:49;;;;;;;;;;;;;;;;;;5109422;27;1219;-76
2022/01/21 10:16:14;;;;;;;;;;;;;;;;;;5089253;27;1332;-75
2022/01/21 10:18:57;;;;;;;;;;;;;;;;;;5092380;27;1249;-75
2022/01/21 10:21:27;;;;;;;;;;;;;;;;;;5122859;27;1024;-75
2022/01/21 10:23:52;;;;;;;;;;;;;;;;;;5108828;27;1450;-75
2022/01/21 10:26:19;;;;;;;;;;;;;;;;;;5125446;27;1120;-75
2022/01/21 10:28:45;;;;;;;;;;;;;;;;;;5109662;27;1946;-75
2022/01/21 10:31:17;;;;;;;;;;;;;;;;;;5111075;27;1036;-75
2022/01/21 10:33:48;;;;;;;;;;;;;;;;;;5109561;27;1230;-74
2022/01/21 10:36:28;;;;;;;;;;;;;;;;;;5120018;27;1136;-74
2022/01/21 10:39:09;;;;;;;;;;;;;;;;;;5084028;28;1332;-75
2022/01/21 10:41:35;;;;;;;;;;;;;;;;;;5086829;28;1355;-75
2022/01/21 10:44:06;;;;;;;;;;;;;;;;;;5107092;28;1212;-76
2022/01/21 10:46:32;;;;;;;;;;;;;;;;;;5115853;27;1064;-75
2022/01/21 10:49:02;;;;;;;;;;;;;;;;;;5108232;27;1926;-76
2022/01/21 10:51:29;;;;;;;;;;;;;;;;;;5122139;27;1234;-76
2022/01/21 10:53:56;;;;;;;;;;;;;;;;;;5128278;27;1227;-76
2022/01/21 10:56:23;;;;;;;;;;;;;;;;;;5108037;27;1029;-75
2022/01/21 10:58:51;;;;;;;;;;;;;;;;;;5089964;28;1182;-75
2022/01/21 11:01:18;;;;;;;;;;;;;;;;;;5087543;28;1194;-74
2022/01/21 11:03:56;;;;;;;;;;;;;;;;;;5106727;28;1144;-72
2022/01/21 11:06:24;;;;;;;;;;;;;;;;;;5083193;28;1210;-74
2022/01/21 11:08:49;;;;;;;;;;;;;;;;;;5106856;28;1906;-74
2022/01/21 11:11:21;;;;;;;;;;;;;;;;;;5108346;27;1155;-74
2022/01/21 11:13:46;;;;;;;;;;;;;;;;;;5126565;27;1159;-73
2022/01/21 11:16:20;;;;;;;;;;;;;;;;;;5108005;27;1348;-75
2022/01/21 11:18:48;;;;;;;;;;;;;;;;;;5087069;28;1348;-75
2022/01/21 11:21:16;;;;;;;;;;;;;;;;;;5082263;28;1300;-75
2022/01/21 11:23:42;;;;;;;;;;;;;;;;;;5106157;28;1346;-76
2022/01/21 11:26:14;;;;;;;;;;;;;;;;;;5085464;28;1128;-76
2022/01/21 11:28:41;;;;;;;;;;;;;;;;;;5070701;28;1953;-76
2022/01/21 11:31:08;;;;;;;;;;;;;;;;;;5102618;28;1136;-76
2022/01/21 11:33:33;;;;;;;;;;;;;;;;;;5069092;28;1177;-76
2022/01/21 11:35:59;;;;;;;;;;;;;;;;;;5103013;28;1132;-75
2022/01/21 11:38:25;;;;;;;;;;;;;;;;;;5083384;28;1356;-76
2022/01/21 11:40:51;;;;;;;;;;;;;;;;;;5069214;28;1203;-76
2022/01/21 11:43:20;;;;;;;;;;;;;;;;;;5086220;28;1152;-76
2022/01/21 11:51:21;;;;;;;;;;;;;;;;;;5091273;28;1188;-75
2022/01/21 11:53:48;;;;;;;;;;;;;;;;;;5105558;28;1108;-75
2022/01/21 11:56:29;;;;;;;;;;;;;;;;;;5086647;28;1197;-75
2022/01/21 11:59:30;;;;;;;;;;;;;;;;;;5086796;28;1189;-76
2022/01/21 12:01:55;;;;;;;;;;;;;;;;;;5092105;28;1254;-76
2022/01/21 12:04:30;;;;;;;;;;;;;;;;;;5084684;28;1307;-76
2022/01/21 12:06:55;;;;;;;;;;;;;;;;;;5093692;28;1269;-77
2022/01/21 12:09:40;;;;;;;;;;;;;;;;;;5123290;28;1917;-76
2022/01/21 12:12:06;;;;;;;;;;;;;;;;;;5106250;28;1364;-76
2022/01/21 12:14:34;;;;;;;;;;;;;;;;;;5123132;28;1132;-76
2022/01/21 12:17:13;;;;;;;;;;;;;;;;;;5124814;28;1214;-76
2022/01/21 12:19:40;;;;;;;;;;;;;;;;;;5122913;28;1151;-76
2022/01/21 12:22:21;;;;;;;;;;;;;;;;;;5102800;28;1254;-76
2022/01/21 12:24:48;;;;;;;;;;;;;;;;;;5126042;28;980;-77
2022/01/21 12:27:13;;;;;;;;;;;;;;;;;;5106604;28;1144;-77
2022/01/21 12:29:39;;;;;;;;;;;;;;;;;;5106290;27;1972;-74
2022/01/21 12:35:00;;;;;;;;;;;;;;;;;;5104711;27;1466;-77
2022/01/21 12:37:38;;;;;;;;;;;;;;;;;;5110611;27;1202;-74
2022/01/21 12:40:04;;;;;;;;;;;;;;;;;;5108433;28;1223;-74
2022/01/21 12:42:35;;;;;;;;;;;;;;;;;;5108483;28;1218;-74
2022/01/21 12:45:00;;;;;;;;;;;;;;;;;;5109483;28;1106;-74
2022/01/21 12:47:26;;;;;;;;;;;;;;;;;;5089488;28;1946;-75
2022/01/21 12:49:53;;;;;;;;;;;;;;;;;;5074797;28;1148;-75
2022/01/21 12:52:43;;;;;;;;;;;;;;;;;;5086134;28;1327;-75
2022/01/21 12:57:54;;;;;;;;;;;;;;;;;;5107981;28;1049;-75
2022/01/21 13:00:20;;;;;;;;;;;;;;;;;;5108524;28;1115;-75
2022/01/21 13:02:49;;;;;;;;;;;;;;;;;;5071745;28;1140;-74
2022/01/21 13:05:32;;;;;;;;;;;;;;;;;;5110124;27;1325;-75
2022/01/21 13:08:17;;;;;;;;;;;;;;;;;;5088431;28;1925;-75
2022/01/21 13:10:43;;;;;;;;;;;;;;;;;;5109132;28;1191;-75
2022/01/21 13:15:42;;;;;;;;;;;;;;;;;;5110370;27;1079;-74
2022/01/21 13:18:09;;;;;;;;;;;;;;;;;;5110121;27;1299;-75
2022/01/21 13:20:36;;;;;;;;;;;;;;;;;;5110979;27;1437;-75
2022/01/21 13:23:01;;;;;;;;;;;;;;;;;;5104741;28;1221;-73
2022/01/21 13:25:28;;;;;;;;;;;;;;;;;;5089620;28;1136;-74
2022/01/21 13:27:55;;;;;;;;;;;;;;;;;;5073959;28;1926;-74
2022/01/21 13:30:27;;;;;;;;;;;;;;;;;;5098384;27;1188;-74
2022/01/21 13:33:00;;;;;;;;;;;;;;;;;;5125095;27;1119;-75
2022/01/21 13:35:26;;;;;;;;;;;;;;;;;;5115469;27;1151;-75
2022/01/21 13:38:12;;;;;;;;;;;;;;;;;;5100313;27;1241;-75
2022/01/21 13:40:45;;;;;;;;;;;;;;;;;;5117390;27;1020;-75
2022/01/21 13:43:14;;;;;;;;;;;;;;;;;;5128891;27;1119;-75
2022/01/21 13:45:53;;;;;;;;;;;;;;;;;;5127571;27;1175;-76
2022/01/21 13:48:19;;;;;;;;;;;;;;;;;;5108349;27;2014;-76
2022/01/21 13:50:45;;;;;;;;;;;;;;;;;;5105724;27;1195;-75
2022/01/21 13:53:11;;;;;;;;;;;;;;;;;;5110704;27;1179;-76
2022/01/21 13:55:45;;;;;;;;;;;;;;;;;;5106570;28;1180;-75
2022/01/21 13:58:10;;;;;;;;;;;;;;;;;;5097743;27;1287;-74
2022/01/21 14:00:37;;;;;;;;;;;;;;;;;;5096349;28;1342;-75
2022/01/21 14:03:09;;;;;;;;;;;;;;;;;;5089027;28;1191;-75
2022/01/21 14:05:41;;;;;;;;;;;;;;;;;;5085771;28;1254;-74
2022/01/21 14:08:13;;;;;;;;;;;;;;;;;;5104695;28;1972;-75
2022/01/21 14:10:39;;;;;;;;;;;;;;;;;;5085903;28;1175;-75
2022/01/21 14:13:04;;;;;;;;;;;;;;;;;;5086467;28;1239;-75
2022/01/21 14:15:30;;;;;;;;;;;;;;;;;;5086211;28;1210;-75
2022/01/21 14:17:55;;;;;;;;;;;;;;;;;;5111603;27;1341;-75
2022/01/21 14:20:21;;;;;;;;;;;;;;;;;;5108956;27;1304;-75
2022/01/21 14:22:47;;;;;;;;;;;;;;;;;;5077086;27;1336;-75
2022/01/21 14:25:13;;;;;;;;;;;;;;;;;;5109121;27;1144;-73
2022/01/21 14:27:38;;;;;;;;;;;;;;;;;;5087381;27;1913;-73
2022/01/21 14:30:05;;;;;;;;;;;;;;;;;;5091903;27;1295;-75
2022/01/21 14:32:39;;;;;;;;;;;;;;;;;;5106264;27;1155;-75
2022/01/21 14:35:25;;;;;;;;;;;;;;;;;;5126207;27;1196;-76
2022/01/21 14:37:53;;;;;;;;;;;;;;;;;;5096294;28;1182;-75
2022/01/21 14:40:29;;;;;;;;;;;;;;;;;;5112263;27;1143;-75
2022/01/21 14:43:05;;;;;;;;;;;;;;;;;;5092433;28;1322;-75
2022/01/21 14:45:30;;;;;;;;;;;;;;;;;;5085324;28;1292;-75
2022/01/21 14:47:56;;;;;;;;;;;;;;;;;;5081490;27;1986;-75
2022/01/21 14:50:23;;;;;;;;;;;;;;;;;;5100037;28;1171;-75
2022/01/21 14:52:50;;;;;;;;;;;;;;;;;;5101435;27;1069;-74
2022/01/21 14:55:30;;;;;;;;;;;;;;;;;;5106546;28;1281;-75
2022/01/21 14:57:57;;;;;;;;;;;;;;;;;;5084975;28;1147;-75
2022/01/21 15:00:34;;;;;;;;;;;;;;;;;;5088895;28;1227;-75
2022/01/21 15:03:01;;;;;;;;;;;;;;;;;;5105545;28;1604;-75
2022/01/21 15:05:28;;;;;;;;;;;;;;;;;;5087698;28;1222;-75
2022/01/21 15:07:53;;;;;;;;;;;;;;;;;;5091721;27;1886;-76
2022/01/21 15:10:33;;;;;;;;;;;;;;;;;;5091809;27;1152;-75
2022/01/21 15:15:46;;;;;;;;;;;;;;;;;;5126349;27;1059;-75
2022/01/21 15:18:15;;;;;;;;;;;;;;;;;;5107355;27;1186;-76
2022/01/21 15:20:42;;;;;;;;;;;;;;;;;;5124602;27;1147;-75
2022/01/21 15:23:08;;;;;;;;;;;;;;;;;;5115410;27;1163;-75
2022/01/21 15:25:35;;;;;;;;;;;;;;;;;;5085964;28;1179;-75
2022/01/21 15:28:00;;;;;;;;;;;;;;;;;;5086941;28;1881;-74
2022/01/21 15:30:27;;;;;;;;;;;;;;;;;;5071575;28;1231;-75
2022/01/21 15:32:53;;;;;;;;;;;;;;;;;;5094111;27;1200;-75
2022/01/21 15:35:19;;;;;;;;;;;;;;;;;;5122187;27;1172;-75
2022/01/21 15:37:44;;;;;;;;;;;;;;;;;;5100042;27;1176;-75
2022/01/21 15:40:10;;;;;;;;;;;;;;;;;;5106367;27;1312;-75
2022/01/21 15:42:41;;;;;;;;;;;;;;;;;;5103221;27;1219;-75
2022/01/21 15:45:07;;;;;;;;;;;;;;;;;;5100747;27;1028;-76
2022/01/21 15:47:33;;;;;;;;;;;;;;;;;;5093341;27;1963;-76
2022/01/21 15:49:59;;;;;;;;;;;;;;;;;;5105496;27;1281;-75
2022/01/21 15:52:24;;;;;;;;;;;;;;;;;;5121060;27;1321;-76
2022/01/21 15:54:49;;;;;;;;;;;;;;;;;;5122190;27;1056;-75
2022/01/21 15:57:15;;;;;;;;;;;;;;;;;;5105934;27;1294;-75
2022/01/21 15:59:40;;;;;;;;;;;;;;;;;;5102584;28;1195;-76
2022/01/21 16:02:06;;;;;;;;;;;;;;;;;;5101110;28;1231;-74
2022/01/21 16:04:32;;;;;;;;;;;;;;;;;;5084996;28;1174;-76
2022/01/21 16:06:58;;;;;;;;;;;;;;;;;;5082200;28;1270;-76
2022/01/21 16:09:23;;;;;;;;;;;;;;;;;;5086315;28;1898;-76
2022/01/21 16:11:52;;;;;;;;;;;;;;;;;;5117764;28;1183;-75
2022/01/21 16:14:18;;;;;;;;;;;;;;;;;;5106406;28;1163;-74
2022/01/21 16:16:44;;;;;;;;;;;;;;;;;;5094575;28;1328;-75
2022/01/21 16:19:09;;;;;;;;;;;;;;;;;;5084964;28;1261;-75
2022/01/21 16:21:39;;;;;;;;;;;;;;;;;;5105682;28;1147;-75
2022/01/21 16:24:05;;;;;;;;;;;;;;;;;;5104463;28;1313;-76
2022/01/21 16:26:30;;;;;;;;;;;;;;;;;;5106432;28;1430;-75
2022/01/21 16:28:56;;;;;;;;;;;;;;;;;;5103475;28;1955;-76
2022/01/21 16:31:21;;;;;;;;;;;;;;;;;;5107021;28;1331;-75
2022/01/21 16:33:50;;;;;;;;;;;;;;;;;;5102981;28;1304;-75
2022/01/21 16:36:18;;;;;;;;;;;;;;;;;;5068675;28;1257;-76
2022/01/21 16:38:43;;;;;;;;;;;;;;;;;;5078899;28;1338;-76
2022/01/21 16:41:09;;;;;;;;;;;;;;;;;;5066646;28;1304;-76
2022/01/21 16:43:34;;;;;;;;;;;;;;;;;;5082453;28;1234;-76
2022/01/21 16:45:59;;;;;;;;;;;;;;;;;;5063664;28;1350;-74
2022/01/21 16:48:25;;;;;;;;;;;;;;;;;;5080632;28;1953;-76
2022/01/21 16:50:50;;;;;;;;;;;;;;;;;;5083129;28;1091;-77
2022/01/21 16:53:17;;;;;;;;;;;;;;;;;;5080984;28;1318;-76
2022/01/21 16:55:42;;;;;;;;;;;;;;;;;;5078176;28;1686;-77
2022/01/21 16:58:07;;;;;;;;;;;;;;;;;;5077790;28;1249;-78
2022/01/21 17:00:32;;;;;;;;;;;;;;;;;;5079797;28;1211;-78
2022/01/21 17:02:59;;;;;;;;;;;;;;;;;;5077513;28;1148;-78
2022/01/21 17:05:24;;;;;;;;;;;;;;;;;;5085429;28;1179;-77
2022/01/21 17:07:50;;;;;;;;;;;;;;;;;;5075633;28;1886;-78
2022/01/21 17:10:16;;;;;;;;;;;;;;;;;;5076984;28;1421;-78
2022/01/21 17:12:42;;;;;;;;;;;;;;;;;;5080328;28;1192;-77
2022/01/21 17:15:09;;;;;;;;;;;;;;;;;;5071717;28;1136;-78
2022/01/21 17:17:34;;;;;;;;;;;;;;;;;;5083049;28;1109;-76
2022/01/21 17:20:00;;;;;;;;;;;;;;;;;;5094015;28;1357;-78
2022/01/21 17:22:26;;;;;;;;;;;;;;;;;;5084905;28;1324;-77
2022/01/21 17:24:51;;;;;;;;;;;;;;;;;;5084647;28;1255;-78
2022/01/21 17:27:18;;;;;;;;;;;;;;;;;;5075404;28;1231;-78
2022/01/21 17:29:46;;;;;;;;;;;;;;;;;;5099811;28;1890;-77
2022/01/21 17:32:11;;;;;;;;;;;;;;;;;;5098322;28;1296;-77
2022/01/21 17:34:37;;;;;;;;;;;;;;;;;;5074952;28;1341;-77
2022/01/21 17:37:03;;;;;;;;;;;;;;;;;;5103198;28;1076;-77
2022/01/21 17:39:28;;;;;;;;;;;;;;;;;;5122746;27;1289;-78
2022/01/21 17:41:54;;;;;;;;;;;;;;;;;;5109912;27;1133;-77
2022/01/21 17:44:20;;;;;;;;;;;;;;;;;;5088970;28;1171;-79
2022/01/21 17:49:59;;;;;;;;;;;;;;;;;;5061412;28;1171;-78
2022/01/21 17:53:29;;;;;;;;;;;;;;;;;;5072593;28;1157;-78
2022/01/21 17:55:57;;;;;;;;;;;;;;;;;;5079006;28;1171;-76
2022/01/21 17:58:22;;;;;;;;;;;;;;;;;;5093684;27;1100;-77
2022/01/21 18:00:47;;;;;;;;;;;;;;;;;;5106173;27;1276;-77
2022/01/21 18:03:12;;;;;;;;;;;;;;;;;;5070625;28;1211;-78
2022/01/21 18:05:39;;;;;;;;;;;;;;;;;;5081941;27;1345;-78
2022/01/21 18:08:05;;;;;;;;;;;;;;;;;;5090130;28;1969;-78
2022/01/21 18:10:54;;;;;;;;;;;;;;;;;;5070438;28;1394;-78
2022/01/21 18:13:20;;;;;;;;;;;;;;;;;;5104943;27;1091;-78
2022/01/21 18:15:50;;;;;;;;;;;;;;;;;;5099782;27;1303;-77